sensor_id;sensor_type;location;lat;lon;timestamp;temperature;humidity
24802;DHT22;12898;50.520;12.152;2022-10-16T00:01:26;15.00;99.90
24802;DHT22;12898;50.520;12.152;2022-10-16T00:03:53;15.00;99.90
24802;DHT22;12898;50.520;12.152;2022-10-16T00:06:20;15.00;99.90
24802;DHT22;12898;50.520;12.152;2022-10-16T00:08:47;15.00;99.90
24802;DHT22;12898;50.520;12.152;2022-10-16T00:11:19;15.00;99.90
24802;DHT22;12898;50.520;12.152;2022-10-16T00:13:48;15.00;99.90
24802;DHT22;12898;50.520;12.152;2022-10-16T00:16:16;15.10;99.90
24802;DHT22;12898;50.520;12.152;2022-10-16T00:18:42;15.10;99.90
24802;DHT22;12898;50.520;12.152;2022-10-16T00:21:14;15.10;99.90
24802;DHT22;12898;50.520;12.152;2022-10-16T00:23:44;15.10;99.90
24802;DHT22;12898;50.520;12.152;2022-10-16T00:26:13;15.10;99.90
24802;DHT22;12898;50.520;12.152;2022-10-16T00:28:40;15.10;99.90
24802;DHT22;12898;50.520;12.152;2022-10-16T00:31:08;15.10;99.90
24802;DHT22;12898;50.520;12.152;2022-10-16T00:33:35;15.10;99.90
24802;DHT22;12898;50.520;12.152;2022-10-16T00:36:03;15.10;99.90
24802;DHT22;12898;50.520;12.152;2022-10-16T00:38:30;15.00;99.90
24802;DHT22;12898;50.520;12.152;2022-10-16T00:40:56;15.00;99.90
24802;DHT22;12898;50.520;12.152;2022-10-16T00:46:13;14.90;99.90
24802;DHT22;12898;50.520;12.152;2022-10-16T00:49:12;14.90;99.90
24802;DHT22;12898;50.520;12.152;2022-10-16T00:51:42;14.90;99.90
24802;DHT22;12898;50.520;12.152;2022-10-16T00:54:25;14.90;99.90
24802;DHT22;12898;50.520;12.152;2022-10-16T00:56:54;14.90;99.90
24802;DHT22;12898;50.520;12.152;2022-10-16T00:59:25;14.80;99.90
24802;DHT22;12898;50.520;12.152;2022-10-16T01:01:53;14.80;99.90
24802;DHT22;12898;50.520;12.152;2022-10-16T01:04:19;14.80;99.90
24802;DHT22;12898;50.520;12.152;2022-10-16T01:07:06;14.80;99.90
24802;DHT22;12898;50.520;12.152;2022-10-16T01:10:02;14.80;99.90
24802;DHT22;12898;50.520;12.152;2022-10-16T01:12:55;14.80;99.90
24802;DHT22;12898;50.520;12.152;2022-10-16T01:15:50;14.80;99.90
24802;DHT22;12898;50.520;12.152;2022-10-16T01:21:41;14.80;99.90
24802;DHT22;12898;50.520;12.152;2022-10-16T01:27:27;14.80;99.90
24802;DHT22;12898;50.520;12.152;2022-10-16T01:32:36;14.80;99.90
24802;DHT22;12898;50.520;12.152;2022-10-16T01:37:56;14.90;99.90
24802;DHT22;12898;50.520;12.152;2022-10-16T01:40:24;14.90;99.90
24802;DHT22;12898;50.520;12.152;2022-10-16T01:43:01;15.00;99.90
24802;DHT22;12898;50.520;12.152;2022-10-16T01:45:30;15.00;99.90
24802;DHT22;12898;50.520;12.152;2022-10-16T01:47:59;15.00;99.90
24802;DHT22;12898;50.520;12.152;2022-10-16T01:50:26;15.00;99.90
24802;DHT22;12898;50.520;12.152;2022-10-16T01:52:55;14.90;99.90
24802;DHT22;12898;50.520;12.152;2022-10-16T01:55:33;14.90;99.90
24802;DHT22;12898;50.520;12.152;2022-10-16T01:58:02;14.90;99.90
24802;DHT22;12898;50.520;12.152;2022-10-16T02:00:29;14.90;99.90
24802;DHT22;12898;50.520;12.152;2022-10-16T02:02:57;14.90;99.90
24802;DHT22;12898;50.520;12.152;2022-10-16T02:05:50;14.90;99.90
24802;DHT22;12898;50.520;12.152;2022-10-16T02:08:16;14.90;99.90
24802;DHT22;12898;50.520;12.152;2022-10-16T02:10:42;14.90;99.90
24802;DHT22;12898;50.520;12.152;2022-10-16T02:13:13;14.80;99.90
24802;DHT22;12898;50.520;12.152;2022-10-16T02:15:42;14.80;99.90
24802;DHT22;12898;50.520;12.152;2022-10-16T02:18:09;14.90;99.90
24802;DHT22;12898;50.520;12.152;2022-10-16T02:20:50;14.80;99.90
24802;DHT22;12898;50.520;12.152;2022-10-16T02:23:27;14.80;99.90
24802;DHT22;12898;50.520;12.152;2022-10-16T02:25:59;14.80;99.90
24802;DHT22;12898;50.520;12.152;2022-10-16T02:28:34;14.70;99.90
24802;DHT22;12898;50.520;12.152;2022-10-16T02:31:10;14.70;99.90
24802;DHT22;12898;50.520;12.152;2022-10-16T02:33:38;14.70;99.90
24802;DHT22;12898;50.520;12.152;2022-10-16T02:36:06;14.80;99.90
24802;DHT22;12898;50.520;12.152;2022-10-16T02:38:33;14.80;99.90
24802;DHT22;12898;50.520;12.152;2022-10-16T02:40:59;14.80;99.90
24802;DHT22;12898;50.520;12.152;2022-10-16T02:43:25;14.80;99.90
24802;DHT22;12898;50.520;12.152;2022-10-16T02:45:51;14.70;99.90
24802;DHT22;12898;50.520;12.152;2022-10-16T02:48:17;14.70;99.90
24802;DHT22;12898;50.520;12.152;2022-10-16T02:50:42;14.70;99.90
24802;DHT22;12898;50.520;12.152;2022-10-16T02:53:08;14.70;99.90
24802;DHT22;12898;50.520;12.152;2022-10-16T02:55:34;14.70;99.90
24802;DHT22;12898;50.520;12.152;2022-10-16T02:58:00;14.70;99.90
24802;DHT22;12898;50.520;12.152;2022-10-16T03:00:25;14.70;99.90
24802;DHT22;12898;50.520;12.152;2022-10-16T03:02:51;14.70;99.90
24802;DHT22;12898;50.520;12.152;2022-10-16T03:05:17;14.70;99.90
24802;DHT22;12898;50.520;12.152;2022-10-16T03:07:43;14.80;99.90
24802;DHT22;12898;50.520;12.152;2022-10-16T03:10:08;14.80;99.90
24802;DHT22;12898;50.520;12.152;2022-10-16T03:12:34;14.80;99.90
24802;DHT22;12898;50.520;12.152;2022-10-16T03:15:00;14.80;99.90
24802;DHT22;12898;50.520;12.152;2022-10-16T03:17:26;14.70;99.90
24802;DHT22;12898;50.520;12.152;2022-10-16T03:19:51;14.70;99.90
24802;DHT22;12898;50.520;12.152;2022-10-16T03:22:17;14.70;99.90
24802;DHT22;12898;50.520;12.152;2022-10-16T03:24:43;14.60;99.90
24802;DHT22;12898;50.520;12.152;2022-10-16T03:27:09;14.60;99.90
24802;DHT22;12898;50.520;12.152;2022-10-16T03:29:34;14.60;99.90
24802;DHT22;12898;50.520;12.152;2022-10-16T03:32:00;14.50;99.90
24802;DHT22;12898;50.520;12.152;2022-10-16T03:34:26;14.50;99.90
24802;DHT22;12898;50.520;12.152;2022-10-16T03:36:52;14.40;99.90
24802;DHT22;12898;50.520;12.152;2022-10-16T03:39:18;14.40;99.90
24802;DHT22;12898;50.520;12.152;2022-10-16T03:41:44;14.40;99.90
24802;DHT22;12898;50.520;12.152;2022-10-16T03:44:09;14.30;99.90
24802;DHT22;12898;50.520;12.152;2022-10-16T03:46:35;14.30;99.90
24802;DHT22;12898;50.520;12.152;2022-10-16T03:49:01;14.30;99.90
24802;DHT22;12898;50.520;12.152;2022-10-16T03:51:26;14.30;99.90
24802;DHT22;12898;50.520;12.152;2022-10-16T03:53:52;14.30;99.90
24802;DHT22;12898;50.520;12.152;2022-10-16T03:56:18;14.30;99.90
24802;DHT22;12898;50.520;12.152;2022-10-16T03:58:44;14.30;99.90
24802;DHT22;12898;50.520;12.152;2022-10-16T04:01:09;14.30;99.90
24802;DHT22;12898;50.520;12.152;2022-10-16T04:03:35;14.30;99.90
24802;DHT22;12898;50.520;12.152;2022-10-16T04:06:01;14.30;99.90
24802;DHT22;12898;50.520;12.152;2022-10-16T04:08:26;14.30;99.90
24802;DHT22;12898;50.520;12.152;2022-10-16T04:10:52;14.30;99.90
24802;DHT22;12898;50.520;12.152;2022-10-16T04:13:18;14.30;99.90
24802;DHT22;12898;50.520;12.152;2022-10-16T04:15:45;14.30;99.90
24802;DHT22;12898;50.520;12.152;2022-10-16T04:18:11;14.30;99.90
24802;DHT22;12898;50.520;12.152;2022-10-16T04:20:37;14.30;99.90
24802;DHT22;12898;50.520;12.152;2022-10-16T04:23:03;14.30;99.90
24802;DHT22;12898;50.520;12.152;2022-10-16T04:25:28;14.40;99.90
24802;DHT22;12898;50.520;12.152;2022-10-16T04:27:54;14.40;99.90
24802;DHT22;12898;50.520;12.152;2022-10-16T04:30:21;14.30;99.90
24802;DHT22;12898;50.520;12.152;2022-10-16T04:32:51;14.40;99.90
24802;DHT22;12898;50.520;12.152;2022-10-16T04:35:18;14.40;99.90
24802;DHT22;12898;50.520;12.152;2022-10-16T04:37:44;14.30;99.90
24802;DHT22;12898;50.520;12.152;2022-10-16T04:40:10;14.30;99.90
24802;DHT22;12898;50.520;12.152;2022-10-16T04:42:36;14.30;99.90
24802;DHT22;12898;50.520;12.152;2022-10-16T04:45:02;14.30;99.90
24802;DHT22;12898;50.520;12.152;2022-10-16T04:47:28;14.30;99.90
24802;DHT22;12898;50.520;12.152;2022-10-16T04:49:54;14.30;99.90
24802;DHT22;12898;50.520;12.152;2022-10-16T04:52:20;14.30;99.90
24802;DHT22;12898;50.520;12.152;2022-10-16T04:54:46;14.30;99.90
24802;DHT22;12898;50.520;12.152;2022-10-16T04:57:12;14.30;99.90
24802;DHT22;12898;50.520;12.152;2022-10-16T04:59:38;14.30;99.90
24802;DHT22;12898;50.520;12.152;2022-10-16T05:02:04;14.30;99.90
24802;DHT22;12898;50.520;12.152;2022-10-16T05:04:29;14.30;99.90
24802;DHT22;12898;50.520;12.152;2022-10-16T05:06:55;14.30;99.90
24802;DHT22;12898;50.520;12.152;2022-10-16T05:09:21;14.30;99.90
24802;DHT22;12898;50.520;12.152;2022-10-16T05:11:46;14.30;99.90
24802;DHT22;12898;50.520;12.152;2022-10-16T05:14:12;14.20;99.90
24802;DHT22;12898;50.520;12.152;2022-10-16T05:16:38;14.20;99.90
24802;DHT22;12898;50.520;12.152;2022-10-16T05:19:04;14.20;99.90
24802;DHT22;12898;50.520;12.152;2022-10-16T05:21:29;14.10;99.90
24802;DHT22;12898;50.520;12.152;2022-10-16T05:23:55;14.10;99.90
24802;DHT22;12898;50.520;12.152;2022-10-16T05:26:21;14.10;99.90
24802;DHT22;12898;50.520;12.152;2022-10-16T05:28:48;14.10;99.90
24802;DHT22;12898;50.520;12.152;2022-10-16T05:31:14;14.10;99.90
24802;DHT22;12898;50.520;12.152;2022-10-16T05:33:40;14.10;99.90
24802;DHT22;12898;50.520;12.152;2022-10-16T05:36:07;14.00;99.90
24802;DHT22;12898;50.520;12.152;2022-10-16T05:38:35;14.00;99.90
24802;DHT22;12898;50.520;12.152;2022-10-16T05:41:01;14.00;99.90
24802;DHT22;12898;50.520;12.152;2022-10-16T05:43:28;14.10;99.90
24802;DHT22;12898;50.520;12.152;2022-10-16T05:45:55;14.10;99.90
24802;DHT22;12898;50.520;12.152;2022-10-16T05:48:22;14.10;99.90
24802;DHT22;12898;50.520;12.152;2022-10-16T05:50:48;14.10;99.90
24802;DHT22;12898;50.520;12.152;2022-10-16T05:53:22;14.10;99.90
24802;DHT22;12898;50.520;12.152;2022-10-16T05:55:54;14.20;99.90
24802;DHT22;12898;50.520;12.152;2022-10-16T05:58:21;14.20;99.90
24802;DHT22;12898;50.520;12.152;2022-10-16T06:01:05;14.30;99.90
24802;DHT22;12898;50.520;12.152;2022-10-16T06:03:42;14.30;99.90
24802;DHT22;12898;50.520;12.152;2022-10-16T06:06:19;14.30;99.90
24802;DHT22;12898;50.520;12.152;2022-10-16T06:08:48;14.30;99.90
24802;DHT22;12898;50.520;12.152;2022-10-16T06:11:20;14.40;99.90
24802;DHT22;12898;50.520;12.152;2022-10-16T06:13:54;14.40;99.90
24802;DHT22;12898;50.520;12.152;2022-10-16T06:16:22;14.40;99.90
24802;DHT22;12898;50.520;12.152;2022-10-16T06:18:51;14.40;99.90
24802;DHT22;12898;50.520;12.152;2022-10-16T06:21:22;14.50;99.90
24802;DHT22;12898;50.520;12.152;2022-10-16T06:23:50;14.50;99.90
24802;DHT22;12898;50.520;12.152;2022-10-16T06:26:18;14.50;99.90
24802;DHT22;12898;50.520;12.152;2022-10-16T06:28:45;14.60;99.90
24802;DHT22;12898;50.520;12.152;2022-10-16T06:31:12;14.60;99.90
24802;DHT22;12898;50.520;12.152;2022-10-16T06:33:38;14.70;99.90
24802;DHT22;12898;50.520;12.152;2022-10-16T06:36:15;14.70;99.90
24802;DHT22;12898;50.520;12.152;2022-10-16T06:38:42;14.80;99.90
24802;DHT22;12898;50.520;12.152;2022-10-16T06:41:12;14.80;99.90
24802;DHT22;12898;50.520;12.152;2022-10-16T06:43:39;14.90;99.90
24802;DHT22;12898;50.520;12.152;2022-10-16T06:46:07;15.00;99.90
24802;DHT22;12898;50.520;12.152;2022-10-16T06:48:34;15.00;99.90
24802;DHT22;12898;50.520;12.152;2022-10-16T06:51:13;15.10;99.90
24802;DHT22;12898;50.520;12.152;2022-10-16T06:53:43;15.10;99.90
24802;DHT22;12898;50.520;12.152;2022-10-16T06:56:19;15.20;99.90
24802;DHT22;12898;50.520;12.152;2022-10-16T06:58:47;15.20;99.90
24802;DHT22;12898;50.520;12.152;2022-10-16T07:01:14;15.30;99.90
24802;DHT22;12898;50.520;12.152;2022-10-16T07:03:42;15.40;99.90
24802;DHT22;12898;50.520;12.152;2022-10-16T07:06:10;15.60;99.90
24802;DHT22;12898;50.520;12.152;2022-10-16T07:08:41;15.70;99.90
24802;DHT22;12898;50.520;12.152;2022-10-16T07:11:12;15.80;99.90
24802;DHT22;12898;50.520;12.152;2022-10-16T07:13:46;15.90;99.90
24802;DHT22;12898;50.520;12.152;2022-10-16T07:16:15;16.00;99.90
24802;DHT22;12898;50.520;12.152;2022-10-16T07:18:42;16.00;99.90
24802;DHT22;12898;50.520;12.152;2022-10-16T07:21:12;16.10;99.90
24802;DHT22;12898;50.520;12.152;2022-10-16T07:23:40;16.10;99.90
24802;DHT22;12898;50.520;12.152;2022-10-16T07:26:06;16.10;99.90
24802;DHT22;12898;50.520;12.152;2022-10-16T07:28:33;16.20;99.90
24802;DHT22;12898;50.520;12.152;2022-10-16T07:31:03;16.30;99.90
24802;DHT22;12898;50.520;12.152;2022-10-16T07:33:31;16.30;99.90
24802;DHT22;12898;50.520;12.152;2022-10-16T07:35:57;16.30;99.90
24802;DHT22;12898;50.520;12.152;2022-10-16T07:38:23;16.30;99.90
24802;DHT22;12898;50.520;12.152;2022-10-16T07:40:56;16.30;99.90
24802;DHT22;12898;50.520;12.152;2022-10-16T07:43:23;16.40;99.90
24802;DHT22;12898;50.520;12.152;2022-10-16T07:45:49;16.40;99.90
24802;DHT22;12898;50.520;12.152;2022-10-16T07:48:16;16.40;99.90
24802;DHT22;12898;50.520;12.152;2022-10-16T07:50:43;16.40;99.90
24802;DHT22;12898;50.520;12.152;2022-10-16T07:53:09;16.50;99.90
24802;DHT22;12898;50.520;12.152;2022-10-16T07:55:38;16.50;99.90
24802;DHT22;12898;50.520;12.152;2022-10-16T07:58:05;16.60;99.90
24802;DHT22;12898;50.520;12.152;2022-10-16T08:00:31;16.70;99.90
24802;DHT22;12898;50.520;12.152;2022-10-16T08:02:58;16.70;99.90
24802;DHT22;12898;50.520;12.152;2022-10-16T08:05:31;16.70;99.90
24802;DHT22;12898;50.520;12.152;2022-10-16T08:07:57;16.80;99.90
24802;DHT22;12898;50.520;12.152;2022-10-16T08:10:24;16.80;99.90
24802;DHT22;12898;50.520;12.152;2022-10-16T08:12:52;16.90;99.90
24802;DHT22;12898;50.520;12.152;2022-10-16T08:15:19;16.90;99.90
24802;DHT22;12898;50.520;12.152;2022-10-16T08:17:57;16.90;99.90
24802;DHT22;12898;50.520;12.152;2022-10-16T08:20:25;16.90;99.90
24802;DHT22;12898;50.520;12.152;2022-10-16T08:22:52;16.90;99.90
24802;DHT22;12898;50.520;12.152;2022-10-16T08:25:20;17.00;99.90
24802;DHT22;12898;50.520;12.152;2022-10-16T08:27:46;17.10;99.90
24802;DHT22;12898;50.520;12.152;2022-10-16T08:30:12;17.20;99.90
24802;DHT22;12898;50.520;12.152;2022-10-16T08:32:39;17.20;99.90
24802;DHT22;12898;50.520;12.152;2022-10-16T08:35:06;17.30;99.90
24802;DHT22;12898;50.520;12.152;2022-10-16T08:37:34;17.40;99.90
24802;DHT22;12898;50.520;12.152;2022-10-16T08:40:00;17.60;99.90
24802;DHT22;12898;50.520;12.152;2022-10-16T08:48:43;18.30;99.90
24802;DHT22;12898;50.520;12.152;2022-10-16T08:51:18;18.50;99.90
24802;DHT22;12898;50.520;12.152;2022-10-16T08:53:52;18.70;99.90
24802;DHT22;12898;50.520;12.152;2022-10-16T08:56:20;18.60;99.90
24802;DHT22;12898;50.520;12.152;2022-10-16T08:58:46;18.40;99.90
24802;DHT22;12898;50.520;12.152;2022-10-16T09:01:15;18.30;99.90
24802;DHT22;12898;50.520;12.152;2022-10-16T09:10:12;18.30;99.90
24802;DHT22;12898;50.520;12.152;2022-10-16T09:16:10;18.30;99.90
24802;DHT22;12898;50.520;12.152;2022-10-16T09:19:01;18.20;99.90
24802;DHT22;12898;50.520;12.152;2022-10-16T09:21:39;18.10;99.90
24802;DHT22;12898;50.520;12.152;2022-10-16T09:24:18;18.10;99.90
24802;DHT22;12898;50.520;12.152;2022-10-16T09:26:46;18.10;99.90
24802;DHT22;12898;50.520;12.152;2022-10-16T09:29:13;18.00;99.90
24802;DHT22;12898;50.520;12.152;2022-10-16T09:31:40;18.10;99.90
24802;DHT22;12898;50.520;12.152;2022-10-16T09:36:57;18.00;99.90
24802;DHT22;12898;50.520;12.152;2022-10-16T09:39:24;18.00;99.90
24802;DHT22;12898;50.520;12.152;2022-10-16T09:41:50;18.00;99.90
24802;DHT22;12898;50.520;12.152;2022-10-16T09:47:00;18.10;99.90
24802;DHT22;12898;50.520;12.152;2022-10-16T09:49:38;18.10;99.90
24802;DHT22;12898;50.520;12.152;2022-10-16T09:52:06;18.10;99.90
24802;DHT22;12898;50.520;12.152;2022-10-16T09:54:37;18.20;99.90
24802;DHT22;12898;50.520;12.152;2022-10-16T09:57:07;18.20;99.90
24802;DHT22;12898;50.520;12.152;2022-10-16T09:59:49;18.30;99.90
24802;DHT22;12898;50.520;12.152;2022-10-16T10:02:33;18.40;99.90
24802;DHT22;12898;50.520;12.152;2022-10-16T10:05:00;18.60;99.90
24802;DHT22;12898;50.520;12.152;2022-10-16T10:07:29;18.70;99.90
24802;DHT22;12898;50.520;12.152;2022-10-16T10:10:00;18.80;99.90
24802;DHT22;12898;50.520;12.152;2022-10-16T10:12:29;19.00;99.90
24802;DHT22;12898;50.520;12.152;2022-10-16T10:15:11;19.00;99.90
24802;DHT22;12898;50.520;12.152;2022-10-16T10:17:52;19.10;99.90
24802;DHT22;12898;50.520;12.152;2022-10-16T10:23:00;19.20;99.90
24802;DHT22;12898;50.520;12.152;2022-10-16T10:25:44;19.20;99.90
24802;DHT22;12898;50.520;12.152;2022-10-16T10:31:57;19.40;99.90
24802;DHT22;12898;50.520;12.152;2022-10-16T10:34:35;19.50;99.90
24802;DHT22;12898;50.520;12.152;2022-10-16T10:43:23;19.90;99.90
24802;DHT22;12898;50.520;12.152;2022-10-16T10:46:23;20.00;99.90
24802;DHT22;12898;50.520;12.152;2022-10-16T10:58:10;20.40;99.90
24802;DHT22;12898;50.520;12.152;2022-10-16T11:01:18;20.30;99.90
24802;DHT22;12898;50.520;12.152;2022-10-16T11:04:29;20.30;99.90
24802;DHT22;12898;50.520;12.152;2022-10-16T11:07:04;20.20;99.90
24802;DHT22;12898;50.520;12.152;2022-10-16T11:09:49;20.20;99.90
24802;DHT22;12898;50.520;12.152;2022-10-16T11:21:19;20.00;99.90
24802;DHT22;12898;50.520;12.152;2022-10-16T11:24:04;20.10;99.90
24802;DHT22;12898;50.520;12.152;2022-10-16T11:26:36;20.10;99.90
24802;DHT22;12898;50.520;12.152;2022-10-16T11:29:14;20.10;99.90
24802;DHT22;12898;50.520;12.152;2022-10-16T11:31:50;20.10;99.90
24802;DHT22;12898;50.520;12.152;2022-10-16T11:34:34;20.10;99.90
24802;DHT22;12898;50.520;12.152;2022-10-16T11:37:12;20.10;99.90
24802;DHT22;12898;50.520;12.152;2022-10-16T11:39:40;20.00;99.90
24802;DHT22;12898;50.520;12.152;2022-10-16T11:42:11;20.10;99.90
24802;DHT22;12898;50.520;12.152;2022-10-16T11:47:40;20.20;99.90
24802;DHT22;12898;50.520;12.152;2022-10-16T11:56:15;20.10;99.90
24802;DHT22;12898;50.520;12.152;2022-10-16T11:58:59;19.90;99.90
24802;DHT22;12898;50.520;12.152;2022-10-16T12:04:20;19.90;99.90
24802;DHT22;12898;50.520;12.152;2022-10-16T12:07:02;19.90;99.90
24802;DHT22;12898;50.520;12.152;2022-10-16T12:09:32;19.80;99.90
24802;DHT22;12898;50.520;12.152;2022-10-16T12:11:58;19.80;99.90
24802;DHT22;12898;50.520;12.152;2022-10-16T12:16:56;19.70;99.90
24802;DHT22;12898;50.520;12.152;2022-10-16T12:19:27;19.60;99.90
24802;DHT22;12898;50.520;12.152;2022-10-16T12:21:58;19.60;99.90
24802;DHT22;12898;50.520;12.152;2022-10-16T12:24:42;19.60;99.90
24802;DHT22;12898;50.520;12.152;2022-10-16T12:30:04;19.40;99.90
24802;DHT22;12898;50.520;12.152;2022-10-16T12:32:37;19.30;99.90
24802;DHT22;12898;50.520;12.152;2022-10-16T12:35:06;19.20;99.90
24802;DHT22;12898;50.520;12.152;2022-10-16T12:37:44;19.10;99.90
24802;DHT22;12898;50.520;12.152;2022-10-16T12:40:27;18.90;99.90
24802;DHT22;12898;50.520;12.152;2022-10-16T12:42:55;18.70;99.90
24802;DHT22;12898;50.520;12.152;2022-10-16T12:45:25;18.60;99.90
24802;DHT22;12898;50.520;12.152;2022-10-16T12:47:53;18.40;99.90
24802;DHT22;12898;50.520;12.152;2022-10-16T12:50:37;18.20;99.90
24802;DHT22;12898;50.520;12.152;2022-10-16T12:53:18;18.10;99.90
24802;DHT22;12898;50.520;12.152;2022-10-16T12:56:03;18.00;99.90
24802;DHT22;12898;50.520;12.152;2022-10-16T13:20:06;18.90;99.90
24802;DHT22;12898;50.520;12.152;2022-10-16T13:26:17;19.20;99.90
24802;DHT22;12898;50.520;12.152;2022-10-16T13:28:46;19.40;99.90
24802;DHT22;12898;50.520;12.152;2022-10-16T13:31:17;19.30;99.90
24802;DHT22;12898;50.520;12.152;2022-10-16T13:33:48;19.10;99.90
24802;DHT22;12898;50.520;12.152;2022-10-16T13:36:26;19.00;99.90
24802;DHT22;12898;50.520;12.152;2022-10-16T13:39:06;18.90;99.90
24802;DHT22;12898;50.520;12.152;2022-10-16T13:41:37;19.00;99.90
24802;DHT22;12898;50.520;12.152;2022-10-16T13:44:03;19.10;99.90
24802;DHT22;12898;50.520;12.152;2022-10-16T13:46:29;19.40;99.90
24802;DHT22;12898;50.520;12.152;2022-10-16T13:49:14;19.90;99.90
24802;DHT22;12898;50.520;12.152;2022-10-16T13:51:41;20.40;99.90
24802;DHT22;12898;50.520;12.152;2022-10-16T13:54:10;20.70;99.90
24802;DHT22;12898;50.520;12.152;2022-10-16T13:56:39;20.90;99.90
24802;DHT22;12898;50.520;12.152;2022-10-16T13:59:22;20.80;99.90
24802;DHT22;12898;50.520;12.152;2022-10-16T14:01:54;20.60;99.90
24802;DHT22;12898;50.520;12.152;2022-10-16T14:04:21;20.50;99.90
24802;DHT22;12898;50.520;12.152;2022-10-16T14:06:50;20.50;99.90
24802;DHT22;12898;50.520;12.152;2022-10-16T14:09:30;20.40;99.90
24802;DHT22;12898;50.520;12.152;2022-10-16T14:11:59;20.40;99.90
24802;DHT22;12898;50.520;12.152;2022-10-16T14:14:40;20.50;99.90
24802;DHT22;12898;50.520;12.152;2022-10-16T14:17:18;20.60;99.90
24802;DHT22;12898;50.520;12.152;2022-10-16T14:19:47;20.60;99.90
24802;DHT22;12898;50.520;12.152;2022-10-16T14:24:59;21.00;99.90
24802;DHT22;12898;50.520;12.152;2022-10-16T14:27:34;21.20;99.90
24802;DHT22;12898;50.520;12.152;2022-10-16T14:30:21;21.30;99.90
24802;DHT22;12898;50.520;12.152;2022-10-16T14:32:58;21.40;99.90
24802;DHT22;12898;50.520;12.152;2022-10-16T14:37:54;20.60;99.90
24802;DHT22;12898;50.520;12.152;2022-10-16T14:40:23;20.20;99.90
24802;DHT22;12898;50.520;12.152;2022-10-16T14:42:49;19.90;99.90
24802;DHT22;12898;50.520;12.152;2022-10-16T14:45:19;19.80;99.90
24802;DHT22;12898;50.520;12.152;2022-10-16T14:48:12;19.70;99.90
24802;DHT22;12898;50.520;12.152;2022-10-16T14:50:40;20.00;99.90
24802;DHT22;12898;50.520;12.152;2022-10-16T14:53:12;20.30;99.90
24802;DHT22;12898;50.520;12.152;2022-10-16T14:55:39;20.60;99.90
24802;DHT22;12898;50.520;12.152;2022-10-16T14:58:05;20.80;99.90
24802;DHT22;12898;50.520;12.152;2022-10-16T15:00:31;20.80;99.90
24802;DHT22;12898;50.520;12.152;2022-10-16T15:02:56;20.80;99.90
24802;DHT22;12898;50.520;12.152;2022-10-16T15:05:24;20.80;99.90
24802;DHT22;12898;50.520;12.152;2022-10-16T15:07:52;20.80;99.90
24802;DHT22;12898;50.520;12.152;2022-10-16T15:10:20;20.70;99.90
24802;DHT22;12898;50.520;12.152;2022-10-16T15:12:46;20.70;99.90
24802;DHT22;12898;50.520;12.152;2022-10-16T15:15:35;20.60;99.90
24802;DHT22;12898;50.520;12.152;2022-10-16T15:18:02;20.30;99.90
24802;DHT22;12898;50.520;12.152;2022-10-16T15:20:30;20.00;99.90
24802;DHT22;12898;50.520;12.152;2022-10-16T15:22:59;19.60;99.90
24802;DHT22;12898;50.520;12.152;2022-10-16T15:27:53;19.20;99.90
24802;DHT22;12898;50.520;12.152;2022-10-16T15:30:19;19.00;99.90
24802;DHT22;12898;50.520;12.152;2022-10-16T15:32:44;18.90;99.90
24802;DHT22;12898;50.520;12.152;2022-10-16T15:35:10;18.80;99.90
24802;DHT22;12898;50.520;12.152;2022-10-16T15:37:35;18.70;99.90
24802;DHT22;12898;50.520;12.152;2022-10-16T15:40:01;18.60;99.90
24802;DHT22;12898;50.520;12.152;2022-10-16T15:42:26;18.50;99.90
24802;DHT22;12898;50.520;12.152;2022-10-16T15:44:52;18.40;99.90
24802;DHT22;12898;50.520;12.152;2022-10-16T15:47:18;18.30;99.90
24802;DHT22;12898;50.520;12.152;2022-10-16T15:49:43;18.20;99.90
24802;DHT22;12898;50.520;12.152;2022-10-16T15:52:09;18.10;99.90
24802;DHT22;12898;50.520;12.152;2022-10-16T15:54:34;18.00;99.90
24802;DHT22;12898;50.520;12.152;2022-10-16T15:57:00;17.90;99.90
24802;DHT22;12898;50.520;12.152;2022-10-16T15:59:25;17.80;99.90
24802;DHT22;12898;50.520;12.152;2022-10-16T16:01:51;17.80;99.90
24802;DHT22;12898;50.520;12.152;2022-10-16T16:04:16;17.60;99.90
24802;DHT22;12898;50.520;12.152;2022-10-16T16:06:42;17.50;99.90
24802;DHT22;12898;50.520;12.152;2022-10-16T16:09:10;17.50;99.90
24802;DHT22;12898;50.520;12.152;2022-10-16T16:11:37;17.40;99.90
24802;DHT22;12898;50.520;12.152;2022-10-16T16:14:05;17.30;99.90
24802;DHT22;12898;50.520;12.152;2022-10-16T16:16:31;17.10;99.90
24802;DHT22;12898;50.520;12.152;2022-10-16T16:19:02;17.00;99.90
24802;DHT22;12898;50.520;12.152;2022-10-16T16:21:28;16.90;99.90
24802;DHT22;12898;50.520;12.152;2022-10-16T16:23:54;16.70;99.90
24802;DHT22;12898;50.520;12.152;2022-10-16T16:26:28;16.50;99.90
24802;DHT22;12898;50.520;12.152;2022-10-16T16:28:59;16.30;99.90
24802;DHT22;12898;50.520;12.152;2022-10-16T16:31:27;16.10;99.90
24802;DHT22;12898;50.520;12.152;2022-10-16T16:33:54;16.10;99.90
24802;DHT22;12898;50.520;12.152;2022-10-16T16:36:19;15.90;99.90
24802;DHT22;12898;50.520;12.152;2022-10-16T16:38:45;15.70;99.90
24802;DHT22;12898;50.520;12.152;2022-10-16T16:41:16;15.60;99.90
24802;DHT22;12898;50.520;12.152;2022-10-16T16:43:44;15.50;99.90
24802;DHT22;12898;50.520;12.152;2022-10-16T16:46:10;15.40;99.90
24802;DHT22;12898;50.520;12.152;2022-10-16T16:48:37;15.30;99.90
24802;DHT22;12898;50.520;12.152;2022-10-16T16:51:08;15.30;99.90
24802;DHT22;12898;50.520;12.152;2022-10-16T16:53:50;15.20;99.90
24802;DHT22;12898;50.520;12.152;2022-10-16T16:56:18;15.20;99.90
24802;DHT22;12898;50.520;12.152;2022-10-16T16:58:48;15.20;99.90
24802;DHT22;12898;50.520;12.152;2022-10-16T17:01:14;15.20;99.90
24802;DHT22;12898;50.520;12.152;2022-10-16T17:03:43;15.20;99.90
24802;DHT22;12898;50.520;12.152;2022-10-16T17:06:10;15.20;99.90
24802;DHT22;12898;50.520;12.152;2022-10-16T17:08:38;15.10;99.90
24802;DHT22;12898;50.520;12.152;2022-10-16T17:11:05;15.10;99.90
24802;DHT22;12898;50.520;12.152;2022-10-16T17:13:33;15.10;99.90
24802;DHT22;12898;50.520;12.152;2022-10-16T17:16:04;15.10;99.90
24802;DHT22;12898;50.520;12.152;2022-10-16T17:18:30;15.10;99.90
24802;DHT22;12898;50.520;12.152;2022-10-16T17:21:01;15.10;99.90
24802;DHT22;12898;50.520;12.152;2022-10-16T17:23:28;15.10;99.90
24802;DHT22;12898;50.520;12.152;2022-10-16T17:25:54;15.10;99.90
24802;DHT22;12898;50.520;12.152;2022-10-16T17:28:20;15.10;99.90
24802;DHT22;12898;50.520;12.152;2022-10-16T17:30:46;15.20;99.90